sensor_id;sensor_type;location;lat;lon;timestamp;P1;durP1;ratioP1;P2;durP2;ratioP2
30948;SDS011;17637;51.984;21.208;2023-09-18T00:00:54;15.52;;;12.30;;
30948;SDS011;17637;51.984;21.208;2023-09-18T00:03:28;13.55;;;11.10;;
30948;SDS011;17637;51.984;21.208;2023-09-18T00:05:59;17.75;;;11.85;;
30948;SDS011;17637;51.984;21.208;2023-09-18T00:08:31;14.50;;;13.00;;
30948;SDS011;17637;51.984;21.208;2023-09-18T00:11:03;13.15;;;11.60;;
30948;SDS011;17637;51.984;21.208;2023-09-18T00:13:35;14.90;;;12.88;;
30948;SDS011;17637;51.984;21.208;2023-09-18T00:16:07;14.80;;;13.30;;
30948;SDS011;17637;51.984;21.208;2023-09-18T00:18:39;14.52;;;13.00;;
30948;SDS011;17637;51.984;21.208;2023-09-18T00:21:11;14.23;;;12.20;;
30948;SDS011;17637;51.984;21.208;2023-09-18T00:23:43;14.55;;;12.85;;
30948;SDS011;17637;51.984;21.208;2023-09-18T00:26:14;15.45;;;13.85;;
30948;SDS011;17637;51.984;21.208;2023-09-18T00:28:46;15.23;;;13.32;;
30948;SDS011;17637;51.984;21.208;2023-09-18T00:31:18;15.75;;;13.98;;
30948;SDS011;17637;51.984;21.208;2023-09-18T00:33:51;15.98;;;14.38;;
30948;SDS011;17637;51.984;21.208;2023-09-18T00:36:23;16.73;;;14.85;;
30948;SDS011;17637;51.984;21.208;2023-09-18T00:38:54;16.70;;;14.80;;
30948;SDS011;17637;51.984;21.208;2023-09-18T00:41:26;17.35;;;14.50;;
30948;SDS011;17637;51.984;21.208;2023-09-18T00:43:58;19.02;;;16.88;;
30948;SDS011;17637;51.984;21.208;2023-09-18T00:46:30;20.92;;;16.48;;
30948;SDS011;17637;51.984;21.208;2023-09-18T00:49:02;16.13;;;14.52;;
30948;SDS011;17637;51.984;21.208;2023-09-18T00:51:34;16.83;;;14.95;;
30948;SDS011;17637;51.984;21.208;2023-09-18T00:54:06;17.33;;;15.45;;
30948;SDS011;17637;51.984;21.208;2023-09-18T00:56:38;18.85;;;16.27;;
30948;SDS011;17637;51.984;21.208;2023-09-18T00:59:10;16.67;;;14.93;;
30948;SDS011;17637;51.984;21.208;2023-09-18T01:01:43;16.52;;;14.60;;
30948;SDS011;17637;51.984;21.208;2023-09-18T01:04:18;15.25;;;13.65;;
30948;SDS011;17637;51.984;21.208;2023-09-18T01:06:51;17.92;;;15.18;;
30948;SDS011;17637;51.984;21.208;2023-09-18T01:09:24;16.45;;;14.75;;
30948;SDS011;17637;51.984;21.208;2023-09-18T01:14:42;16.58;;;14.75;;
30948;SDS011;17637;51.984;21.208;2023-09-18T01:17:20;15.52;;;13.93;;
30948;SDS011;17637;51.984;21.208;2023-09-18T01:19:52;15.68;;;14.07;;
30948;SDS011;17637;51.984;21.208;2023-09-18T01:22:23;16.38;;;14.68;;
30948;SDS011;17637;51.984;21.208;2023-09-18T01:24:55;14.95;;;13.45;;
30948;SDS011;17637;51.984;21.208;2023-09-18T01:27:27;18.10;;;16.20;;
30948;SDS011;17637;51.984;21.208;2023-09-18T01:29:59;16.30;;;14.30;;
30948;SDS011;17637;51.984;21.208;2023-09-18T01:32:31;15.82;;;14.32;;
30948;SDS011;17637;51.984;21.208;2023-09-18T01:35:04;15.18;;;13.60;;
30948;SDS011;17637;51.984;21.208;2023-09-18T01:37:38;17.02;;;15.30;;
30948;SDS011;17637;51.984;21.208;2023-09-18T01:40:11;16.48;;;13.93;;
30948;SDS011;17637;51.984;21.208;2023-09-18T01:42:43;17.55;;;15.85;;
30948;SDS011;17637;51.984;21.208;2023-09-18T01:45:17;14.38;;;12.95;;
30948;SDS011;17637;51.984;21.208;2023-09-18T01:47:49;16.63;;;14.65;;
30948;SDS011;17637;51.984;21.208;2023-09-18T01:50:21;15.98;;;14.30;;
30948;SDS011;17637;51.984;21.208;2023-09-18T01:52:53;16.65;;;14.95;;
30948;SDS011;17637;51.984;21.208;2023-09-18T01:55:25;17.88;;;14.85;;
30948;SDS011;17637;51.984;21.208;2023-09-18T01:57:57;16.77;;;14.93;;
30948;SDS011;17637;51.984;21.208;2023-09-18T02:00:30;16.45;;;14.80;;
30948;SDS011;17637;51.984;21.208;2023-09-18T02:03:02;18.67;;;16.88;;
30948;SDS011;17637;51.984;21.208;2023-09-18T02:05:55;19.98;;;17.88;;
30948;SDS011;17637;51.984;21.208;2023-09-18T02:08:28;21.08;;;18.40;;
30948;SDS011;17637;51.984;21.208;2023-09-18T02:11:00;19.23;;;16.88;;
30948;SDS011;17637;51.984;21.208;2023-09-18T02:13:32;18.60;;;16.60;;
30948;SDS011;17637;51.984;21.208;2023-09-18T02:16:03;17.25;;;15.55;;
30948;SDS011;17637;51.984;21.208;2023-09-18T02:18:35;20.45;;;17.88;;
30948;SDS011;17637;51.984;21.208;2023-09-18T02:21:07;18.38;;;16.48;;
30948;SDS011;17637;51.984;21.208;2023-09-18T02:23:39;18.17;;;15.63;;
30948;SDS011;17637;51.984;21.208;2023-09-18T02:26:11;16.85;;;15.15;;
30948;SDS011;17637;51.984;21.208;2023-09-18T02:28:42;18.27;;;16.58;;
30948;SDS011;17637;51.984;21.208;2023-09-18T02:31:14;16.00;;;14.30;;
30948;SDS011;17637;51.984;21.208;2023-09-18T02:33:46;15.60;;;14.07;;
30948;SDS011;17637;51.984;21.208;2023-09-18T02:36:18;15.57;;;13.88;;
30948;SDS011;17637;51.984;21.208;2023-09-18T02:38:50;17.88;;;16.00;;
30948;SDS011;17637;51.984;21.208;2023-09-18T02:41:22;16.65;;;14.70;;
30948;SDS011;17637;51.984;21.208;2023-09-18T02:43:54;19.05;;;17.00;;
30948;SDS011;17637;51.984;21.208;2023-09-18T02:46:26;16.10;;;14.45;;
30948;SDS011;17637;51.984;21.208;2023-09-18T02:48:58;14.90;;;13.50;;
30948;SDS011;17637;51.984;21.208;2023-09-18T02:51:30;17.98;;;15.30;;
30948;SDS011;17637;51.984;21.208;2023-09-18T02:54:03;17.60;;;15.73;;
30948;SDS011;17637;51.984;21.208;2023-09-18T02:56:35;16.50;;;14.70;;
30948;SDS011;17637;51.984;21.208;2023-09-18T02:59:07;15.10;;;13.07;;
30948;SDS011;17637;51.984;21.208;2023-09-18T03:01:39;18.27;;;16.45;;
30948;SDS011;17637;51.984;21.208;2023-09-18T03:04:10;17.40;;;15.70;;
30948;SDS011;17637;51.984;21.208;2023-09-18T03:06:42;17.17;;;15.38;;
30948;SDS011;17637;51.984;21.208;2023-09-18T03:09:14;15.80;;;14.20;;
30948;SDS011;17637;51.984;21.208;2023-09-18T03:11:47;16.65;;;14.85;;
30948;SDS011;17637;51.984;21.208;2023-09-18T03:14:19;15.88;;;13.93;;
30948;SDS011;17637;51.984;21.208;2023-09-18T03:16:51;16.33;;;14.48;;
30948;SDS011;17637;51.984;21.208;2023-09-18T03:19:23;17.80;;;15.88;;
30948;SDS011;17637;51.984;21.208;2023-09-18T03:21:56;17.70;;;14.70;;
30948;SDS011;17637;51.984;21.208;2023-09-18T03:24:27;18.77;;;16.75;;
30948;SDS011;17637;51.984;21.208;2023-09-18T03:26:59;19.48;;;16.25;;
30948;SDS011;17637;51.984;21.208;2023-09-18T03:29:31;18.83;;;16.83;;
30948;SDS011;17637;51.984;21.208;2023-09-18T03:32:03;16.38;;;14.73;;
30948;SDS011;17637;51.984;21.208;2023-09-18T03:34:35;17.50;;;15.30;;
30948;SDS011;17637;51.984;21.208;2023-09-18T03:37:07;14.52;;;12.82;;
30948;SDS011;17637;51.984;21.208;2023-09-18T03:39:38;18.40;;;15.38;;
30948;SDS011;17637;51.984;21.208;2023-09-18T03:42:10;18.55;;;16.63;;
30948;SDS011;17637;51.984;21.208;2023-09-18T03:44:42;18.80;;;16.35;;
30948;SDS011;17637;51.984;21.208;2023-09-18T03:47:14;17.15;;;15.25;;
30948;SDS011;17637;51.984;21.208;2023-09-18T03:49:45;19.05;;;15.57;;
30948;SDS011;17637;51.984;21.208;2023-09-18T03:52:18;18.23;;;15.00;;
30948;SDS011;17637;51.984;21.208;2023-09-18T03:54:50;16.55;;;14.68;;
30948;SDS011;17637;51.984;21.208;2023-09-18T03:57:22;19.45;;;17.17;;
30948;SDS011;17637;51.984;21.208;2023-09-18T03:59:54;15.57;;;13.95;;
30948;SDS011;17637;51.984;21.208;2023-09-18T04:02:26;16.83;;;15.02;;
30948;SDS011;17637;51.984;21.208;2023-09-18T04:04:58;20.52;;;17.42;;
30948;SDS011;17637;51.984;21.208;2023-09-18T04:07:30;19.65;;;16.75;;
30948;SDS011;17637;51.984;21.208;2023-09-18T04:10:02;16.63;;;14.90;;
30948;SDS011;17637;51.984;21.208;2023-09-18T04:12:35;15.13;;;13.55;;
30948;SDS011;17637;51.984;21.208;2023-09-18T04:15:07;17.08;;;15.27;;
30948;SDS011;17637;51.984;21.208;2023-09-18T04:17:39;18.75;;;14.65;;
30948;SDS011;17637;51.984;21.208;2023-09-18T04:20:11;15.95;;;14.23;;
30948;SDS011;17637;51.984;21.208;2023-09-18T04:22:45;17.52;;;15.05;;
30948;SDS011;17637;51.984;21.208;2023-09-18T04:25:21;19.58;;;16.35;;
30948;SDS011;17637;51.984;21.208;2023-09-18T04:27:53;15.63;;;13.82;;
30948;SDS011;17637;51.984;21.208;2023-09-18T04:30:25;18.88;;;16.20;;
30948;SDS011;17637;51.984;21.208;2023-09-18T04:32:57;18.17;;;16.30;;
30948;SDS011;17637;51.984;21.208;2023-09-18T04:35:29;19.00;;;14.95;;
30948;SDS011;17637;51.984;21.208;2023-09-18T04:38:03;17.58;;;14.27;;
30948;SDS011;17637;51.984;21.208;2023-09-18T04:40:35;19.42;;;17.35;;
30948;SDS011;17637;51.984;21.208;2023-09-18T04:43:09;16.65;;;14.35;;
30948;SDS011;17637;51.984;21.208;2023-09-18T04:45:40;19.52;;;17.52;;
30948;SDS011;17637;51.984;21.208;2023-09-18T04:48:14;18.40;;;16.40;;
30948;SDS011;17637;51.984;21.208;2023-09-18T04:50:46;15.90;;;14.23;;
30948;SDS011;17637;51.984;21.208;2023-09-18T04:53:18;17.35;;;14.07;;
30948;SDS011;17637;51.984;21.208;2023-09-18T04:55:50;16.73;;;15.02;;
30948;SDS011;17637;51.984;21.208;2023-09-18T04:58:22;16.27;;;14.63;;
30948;SDS011;17637;51.984;21.208;2023-09-18T05:00:54;20.08;;;16.88;;
30948;SDS011;17637;51.984;21.208;2023-09-18T05:03:28;20.58;;;17.27;;
30948;SDS011;17637;51.984;21.208;2023-09-18T05:06:01;16.08;;;14.13;;
30948;SDS011;17637;51.984;21.208;2023-09-18T05:08:35;15.82;;;14.27;;
30948;SDS011;17637;51.984;21.208;2023-09-18T05:11:07;16.30;;;14.40;;
30948;SDS011;17637;51.984;21.208;2023-09-18T05:13:39;21.10;;;16.40;;
30948;SDS011;17637;51.984;21.208;2023-09-18T05:16:11;15.70;;;14.15;;
30948;SDS011;17637;51.984;21.208;2023-09-18T05:18:43;17.55;;;15.75;;
30948;SDS011;17637;51.984;21.208;2023-09-18T05:21:15;16.17;;;14.55;;
30948;SDS011;17637;51.984;21.208;2023-09-18T05:23:47;20.00;;;16.60;;
30948;SDS011;17637;51.984;21.208;2023-09-18T05:26:19;18.92;;;16.35;;
30948;SDS011;17637;51.984;21.208;2023-09-18T05:28:51;22.60;;;19.92;;
30948;SDS011;17637;51.984;21.208;2023-09-18T05:31:25;20.70;;;17.27;;
30948;SDS011;17637;51.984;21.208;2023-09-18T05:33:58;21.35;;;19.10;;
30948;SDS011;17637;51.984;21.208;2023-09-18T05:36:30;22.83;;;20.40;;
30948;SDS011;17637;51.984;21.208;2023-09-18T05:39:02;20.85;;;17.40;;
30948;SDS011;17637;51.984;21.208;2023-09-18T05:41:34;22.35;;;19.67;;
30948;SDS011;17637;51.984;21.208;2023-09-18T05:44:06;21.10;;;18.88;;
30948;SDS011;17637;51.984;21.208;2023-09-18T05:46:38;22.38;;;19.10;;
30948;SDS011;17637;51.984;21.208;2023-09-18T05:49:11;18.65;;;16.23;;
30948;SDS011;17637;51.984;21.208;2023-09-18T05:51:44;19.27;;;17.25;;
30948;SDS011;17637;51.984;21.208;2023-09-18T05:54:16;19.00;;;16.33;;
30948;SDS011;17637;51.984;21.208;2023-09-18T05:56:47;18.70;;;16.80;;
30948;SDS011;17637;51.984;21.208;2023-09-18T05:59:19;21.63;;;16.42;;
30948;SDS011;17637;51.984;21.208;2023-09-18T06:01:51;18.52;;;14.88;;
30948;SDS011;17637;51.984;21.208;2023-09-18T06:04:25;20.50;;;16.98;;
30948;SDS011;17637;51.984;21.208;2023-09-18T06:06:57;22.17;;;18.33;;
30948;SDS011;17637;51.984;21.208;2023-09-18T06:09:29;20.35;;;16.02;;
30948;SDS011;17637;51.984;21.208;2023-09-18T06:12:01;19.98;;;16.10;;
30948;SDS011;17637;51.984;21.208;2023-09-18T06:14:32;20.42;;;18.30;;
30948;SDS011;17637;51.984;21.208;2023-09-18T06:17:09;18.02;;;16.15;;
30948;SDS011;17637;51.984;21.208;2023-09-18T06:19:42;21.42;;;16.65;;
30948;SDS011;17637;51.984;21.208;2023-09-18T06:22:14;17.00;;;15.45;;
30948;SDS011;17637;51.984;21.208;2023-09-18T06:24:46;17.35;;;15.65;;
30948;SDS011;17637;51.984;21.208;2023-09-18T06:27:18;19.23;;;17.08;;
30948;SDS011;17637;51.984;21.208;2023-09-18T06:29:50;18.02;;;16.33;;
30948;SDS011;17637;51.984;21.208;2023-09-18T06:32:22;17.55;;;15.75;;
30948;SDS011;17637;51.984;21.208;2023-09-18T06:34:54;18.90;;;16.80;;
30948;SDS011;17637;51.984;21.208;2023-09-18T06:37:25;18.67;;;15.40;;
30948;SDS011;17637;51.984;21.208;2023-09-18T06:39:57;17.20;;;15.02;;
30948;SDS011;17637;51.984;21.208;2023-09-18T06:42:29;18.90;;;15.15;;
30948;SDS011;17637;51.984;21.208;2023-09-18T06:45:01;17.88;;;15.65;;
30948;SDS011;17637;51.984;21.208;2023-09-18T06:47:33;17.10;;;15.35;;
30948;SDS011;17637;51.984;21.208;2023-09-18T06:50:05;17.02;;;15.25;;
30948;SDS011;17637;51.984;21.208;2023-09-18T06:52:37;16.90;;;15.20;;
30948;SDS011;17637;51.984;21.208;2023-09-18T06:55:09;17.27;;;14.93;;
30948;SDS011;17637;51.984;21.208;2023-09-18T06:57:41;17.13;;;15.32;;
30948;SDS011;17637;51.984;21.208;2023-09-18T07:00:13;17.15;;;15.45;;
30948;SDS011;17637;51.984;21.208;2023-09-18T07:02:46;18.48;;;16.67;;
30948;SDS011;17637;51.984;21.208;2023-09-18T07:05:19;19.90;;;16.30;;
30948;SDS011;17637;51.984;21.208;2023-09-18T07:07:51;17.58;;;15.75;;
30948;SDS011;17637;51.984;21.208;2023-09-18T07:10:22;17.25;;;15.55;;
30948;SDS011;17637;51.984;21.208;2023-09-18T07:12:55;16.88;;;15.10;;
30948;SDS011;17637;51.984;21.208;2023-09-18T07:15:27;16.40;;;14.70;;
30948;SDS011;17637;51.984;21.208;2023-09-18T07:17:58;17.70;;;15.95;;
30948;SDS011;17637;51.984;21.208;2023-09-18T07:20:30;18.30;;;15.60;;
30948;SDS011;17637;51.984;21.208;2023-09-18T07:23:03;20.85;;;16.67;;
30948;SDS011;17637;51.984;21.208;2023-09-18T07:25:35;17.73;;;15.82;;
30948;SDS011;17637;51.984;21.208;2023-09-18T07:28:10;17.20;;;15.43;;
30948;SDS011;17637;51.984;21.208;2023-09-18T07:30:47;17.30;;;15.45;;
30948;SDS011;17637;51.984;21.208;2023-09-18T07:33:19;16.85;;;15.25;;
30948;SDS011;17637;51.984;21.208;2023-09-18T07:35:51;17.65;;;15.73;;
30948;SDS011;17637;51.984;21.208;2023-09-18T07:38:23;17.95;;;16.15;;
30948;SDS011;17637;51.984;21.208;2023-09-18T07:40:56;17.65;;;15.95;;
30948;SDS011;17637;51.984;21.208;2023-09-18T07:43:28;18.85;;;16.10;;
30948;SDS011;17637;51.984;21.208;2023-09-18T07:46:00;16.33;;;14.73;;
30948;SDS011;17637;51.984;21.208;2023-09-18T07:48:33;16.95;;;15.25;;
30948;SDS011;17637;51.984;21.208;2023-09-18T07:51:10;16.35;;;14.75;;
30948;SDS011;17637;51.984;21.208;2023-09-18T07:53:45;16.45;;;14.82;;
30948;SDS011;17637;51.984;21.208;2023-09-18T07:56:17;16.42;;;13.80;;
30948;SDS011;17637;51.984;21.208;2023-09-18T07:58:50;16.35;;;14.65;;
30948;SDS011;17637;51.984;21.208;2023-09-18T08:01:23;16.13;;;14.43;;
30948;SDS011;17637;51.984;21.208;2023-09-18T08:03:54;16.48;;;14.40;;
30948;SDS011;17637;51.984;21.208;2023-09-18T08:06:27;14.98;;;13.25;;
30948;SDS011;17637;51.984;21.208;2023-09-18T08:09:00;15.45;;;13.88;;
30948;SDS011;17637;51.984;21.208;2023-09-18T08:11:32;16.05;;;14.45;;
30948;SDS011;17637;51.984;21.208;2023-09-18T08:14:04;15.32;;;13.82;;
30948;SDS011;17637;51.984;21.208;2023-09-18T08:16:37;15.00;;;13.60;;
30948;SDS011;17637;51.984;21.208;2023-09-18T08:19:09;13.63;;;12.32;;
30948;SDS011;17637;51.984;21.208;2023-09-18T08:21:41;16.77;;;14.20;;
30948;SDS011;17637;51.984;21.208;2023-09-18T08:24:13;15.65;;;13.95;;
30948;SDS011;17637;51.984;21.208;2023-09-18T08:26:46;14.95;;;13.40;;
30948;SDS011;17637;51.984;21.208;2023-09-18T08:29:18;14.85;;;12.65;;
30948;SDS011;17637;51.984;21.208;2023-09-18T08:31:50;14.52;;;13.02;;
30948;SDS011;17637;51.984;21.208;2023-09-18T08:34:22;13.93;;;12.63;;
30948;SDS011;17637;51.984;21.208;2023-09-18T08:36:56;13.57;;;12.18;;
30948;SDS011;17637;51.984;21.208;2023-09-18T08:39:28;13.27;;;12.07;;
30948;SDS011;17637;51.984;21.208;2023-09-18T08:42:02;14.25;;;12.75;;
30948;SDS011;17637;51.984;21.208;2023-09-18T08:44:35;14.05;;;12.57;;
30948;SDS011;17637;51.984;21.208;2023-09-18T08:47:10;14.95;;;12.00;;
30948;SDS011;17637;51.984;21.208;2023-09-18T08:49:46;12.95;;;11.65;;
30948;SDS011;17637;51.984;21.208;2023-09-18T08:52:21;12.50;;;11.27;;
30948;SDS011;17637;51.984;21.208;2023-09-18T08:54:54;12.05;;;10.95;;
30948;SDS011;17637;51.984;21.208;2023-09-18T08:57:27;11.95;;;10.82;;
30948;SDS011;17637;51.984;21.208;2023-09-18T09:00:02;11.52;;;10.18;;
30948;SDS011;17637;51.984;21.208;2023-09-18T09:02:38;11.15;;;9.98;;
30948;SDS011;17637;51.984;21.208;2023-09-18T09:05:10;11.20;;;10.00;;
30948;SDS011;17637;51.984;21.208;2023-09-18T09:07:42;11.35;;;10.25;;
30948;SDS011;17637;51.984;21.208;2023-09-18T09:10:14;11.00;;;9.80;;
30948;SDS011;17637;51.984;21.208;2023-09-18T09:15:43;10.48;;;9.38;;
30948;SDS011;17637;51.984;21.208;2023-09-18T09:18:19;12.35;;;9.63;;
30948;SDS011;17637;51.984;21.208;2023-09-18T09:20:52;11.27;;;10.23;;
30948;SDS011;17637;51.984;21.208;2023-09-18T09:23:44;10.35;;;9.35;;
30948;SDS011;17637;51.984;21.208;2023-09-18T09:26:23;10.18;;;9.00;;
30948;SDS011;17637;51.984;21.208;2023-09-18T09:28:55;9.82;;;8.93;;
30948;SDS011;17637;51.984;21.208;2023-09-18T09:31:29;10.23;;;9.23;;
30948;SDS011;17637;51.984;21.208;2023-09-18T09:34:02;10.25;;;9.10;;
30948;SDS011;17637;51.984;21.208;2023-09-18T09:36:36;10.63;;;8.27;;
30948;SDS011;17637;51.984;21.208;2023-09-18T09:39:22;9.63;;;8.13;;
30948;SDS011;17637;51.984;21.208;2023-09-18T09:41:59;9.93;;;8.50;;
30948;SDS011;17637;51.984;21.208;2023-09-18T09:44:32;10.27;;;8.98;;
30948;SDS011;17637;51.984;21.208;2023-09-18T09:47:05;9.35;;;8.38;;
30948;SDS011;17637;51.984;21.208;2023-09-18T09:49:49;8.63;;;7.57;;
30948;SDS011;17637;51.984;21.208;2023-09-18T09:52:21;7.93;;;7.15;;
30948;SDS011;17637;51.984;21.208;2023-09-18T09:54:53;9.25;;;7.70;;
30948;SDS011;17637;51.984;21.208;2023-09-18T09:57:25;11.88;;;7.40;;
30948;SDS011;17637;51.984;21.208;2023-09-18T10:00:04;9.25;;;6.63;;
30948;SDS011;17637;51.984;21.208;2023-09-18T10:03:00;7.45;;;6.65;;
30948;SDS011;17637;51.984;21.208;2023-09-18T10:05:35;8.43;;;7.15;;
30948;SDS011;17637;51.984;21.208;2023-09-18T10:08:12;12.88;;;7.47;;
30948;SDS011;17637;51.984;21.208;2023-09-18T10:10:50;8.20;;;7.10;;
30948;SDS011;17637;51.984;21.208;2023-09-18T10:13:27;9.38;;;7.65;;
30948;SDS011;17637;51.984;21.208;2023-09-18T10:16:04;9.32;;;7.38;;
30948;SDS011;17637;51.984;21.208;2023-09-18T10:21:17;9.75;;;6.70;;
30948;SDS011;17637;51.984;21.208;2023-09-18T10:24:13;7.47;;;6.63;;
30948;SDS011;17637;51.984;21.208;2023-09-18T10:26:56;8.90;;;7.03;;
30948;SDS011;17637;51.984;21.208;2023-09-18T10:29:36;7.60;;;6.90;;
30948;SDS011;17637;51.984;21.208;2023-09-18T10:32:08;7.78;;;6.60;;
30948;SDS011;17637;51.984;21.208;2023-09-18T10:34:40;8.00;;;7.20;;
30948;SDS011;17637;51.984;21.208;2023-09-18T10:37:15;7.53;;;6.72;;
30948;SDS011;17637;51.984;21.208;2023-09-18T10:39:46;7.32;;;6.57;;
30948;SDS011;17637;51.984;21.208;2023-09-18T10:42:20;7.97;;;6.90;;
30948;SDS011;17637;51.984;21.208;2023-09-18T10:44:54;6.95;;;6.03;;
30948;SDS011;17637;51.984;21.208;2023-09-18T10:47:26;6.85;;;5.60;;
30948;SDS011;17637;51.984;21.208;2023-09-18T10:49:59;8.00;;;6.75;;
30948;SDS011;17637;51.984;21.208;2023-09-18T10:52:32;7.38;;;6.50;;
30948;SDS011;17637;51.984;21.208;2023-09-18T10:55:04;9.55;;;7.00;;
30948;SDS011;17637;51.984;21.208;2023-09-18T10:57:36;8.00;;;6.70;;
30948;SDS011;17637;51.984;21.208;2023-09-18T11:00:10;7.20;;;6.43;;
30948;SDS011;17637;51.984;21.208;2023-09-18T11:02:45;7.18;;;6.47;;
30948;SDS011;17637;51.984;21.208;2023-09-18T11:05:39;10.10;;;6.95;;
30948;SDS011;17637;51.984;21.208;2023-09-18T11:11:08;7.20;;;6.35;;
30948;SDS011;17637;51.984;21.208;2023-09-18T11:13:45;8.05;;;6.32;;
30948;SDS011;17637;51.984;21.208;2023-09-18T11:19:07;7.32;;;6.63;;
30948;SDS011;17637;51.984;21.208;2023-09-18T11:21:42;7.72;;;6.95;;
30948;SDS011;17637;51.984;21.208;2023-09-18T11:24:19;7.70;;;6.40;;
30948;SDS011;17637;51.984;21.208;2023-09-18T11:26:52;7.00;;;6.30;;
30948;SDS011;17637;51.984;21.208;2023-09-18T11:29:24;7.32;;;6.60;;
30948;SDS011;17637;51.984;21.208;2023-09-18T11:32:00;6.93;;;6.05;;
30948;SDS011;17637;51.984;21.208;2023-09-18T11:34:36;8.02;;;6.40;;
30948;SDS011;17637;51.984;21.208;2023-09-18T11:37:19;7.78;;;6.55;;
30948;SDS011;17637;51.984;21.208;2023-09-18T11:39:51;7.07;;;6.22;;
30948;SDS011;17637;51.984;21.208;2023-09-18T11:42:23;9.48;;;6.90;;
30948;SDS011;17637;51.984;21.208;2023-09-18T11:44:58;8.30;;;5.85;;
30948;SDS011;17637;51.984;21.208;2023-09-18T11:47:30;7.18;;;6.50;;
30948;SDS011;17637;51.984;21.208;2023-09-18T11:50:04;8.85;;;6.90;;
30948;SDS011;17637;51.984;21.208;2023-09-18T11:52:37;8.52;;;5.95;;
30948;SDS011;17637;51.984;21.208;2023-09-18T11:55:09;8.55;;;6.32;;
30948;SDS011;17637;51.984;21.208;2023-09-18T11:57:41;7.68;;;6.47;;
30948;SDS011;17637;51.984;21.208;2023-09-18T12:00:19;6.80;;;6.22;;
30948;SDS011;17637;51.984;21.208;2023-09-18T12:02:56;6.43;;;5.90;;
30948;SDS011;17637;51.984;21.208;2023-09-18T12:05:29;8.93;;;6.50;;
30948;SDS011;17637;51.984;21.208;2023-09-18T12:08:01;8.13;;;6.28;;
30948;SDS011;17637;51.984;21.208;2023-09-18T12:10:35;6.93;;;6.25;;
30948;SDS011;17637;51.984;21.208;2023-09-18T12:13:06;6.85;;;6.18;;
30948;SDS011;17637;51.984;21.208;2023-09-18T12:15:39;7.13;;;6.43;;
30948;SDS011;17637;51.984;21.208;2023-09-18T12:18:11;9.48;;;6.30;;
30948;SDS011;17637;51.984;21.208;2023-09-18T12:20:47;6.93;;;6.22;;
30948;SDS011;17637;51.984;21.208;2023-09-18T12:23:20;9.32;;;5.47;;
30948;SDS011;17637;51.984;21.208;2023-09-18T12:25:56;6.78;;;6.13;;
30948;SDS011;17637;51.984;21.208;2023-09-18T12:28:35;6.18;;;5.57;;
30948;SDS011;17637;51.984;21.208;2023-09-18T12:31:14;7.15;;;6.13;;
30948;SDS011;17637;51.984;21.208;2023-09-18T12:33:47;6.38;;;5.78;;
30948;SDS011;17637;51.984;21.208;2023-09-18T12:36:19;6.50;;;5.80;;
30948;SDS011;17637;51.984;21.208;2023-09-18T12:38:57;6.13;;;5.30;;
30948;SDS011;17637;51.984;21.208;2023-09-18T12:44:05;6.40;;;5.80;;
30948;SDS011;17637;51.984;21.208;2023-09-18T12:46:37;6.07;;;5.50;;
30948;SDS011;17637;51.984;21.208;2023-09-18T12:49:18;6.18;;;5.57;;
30948;SDS011;17637;51.984;21.208;2023-09-18T12:51:57;8.25;;;5.05;;
30948;SDS011;17637;51.984;21.208;2023-09-18T12:54:37;6.68;;;5.30;;
30948;SDS011;17637;51.984;21.208;2023-09-18T12:57:15;5.65;;;5.15;;
30948;SDS011;17637;51.984;21.208;2023-09-18T12:59:48;7.78;;;5.80;;
30948;SDS011;17637;51.984;21.208;2023-09-18T13:02:25;7.90;;;5.80;;
30948;SDS011;17637;51.984;21.208;2023-09-18T13:05:00;7.72;;;5.57;;
30948;SDS011;17637;51.984;21.208;2023-09-18T13:07:42;7.93;;;5.53;;
30948;SDS011;17637;51.984;21.208;2023-09-18T13:10:16;6.35;;;5.75;;
30948;SDS011;17637;51.984;21.208;2023-09-18T13:12:48;7.03;;;5.65;;
30948;SDS011;17637;51.984;21.208;2023-09-18T13:15:26;7.07;;;5.80;;
30948;SDS011;17637;51.984;21.208;2023-09-18T13:18:08;6.45;;;5.40;;
30948;SDS011;17637;51.984;21.208;2023-09-18T13:20:41;7.25;;;5.95;;
30948;SDS011;17637;51.984;21.208;2023-09-18T13:23:15;6.85;;;6.10;;
30948;SDS011;17637;51.984;21.208;2023-09-18T13:25:58;6.47;;;5.90;;
30948;SDS011;17637;51.984;21.208;2023-09-18T13:28:31;7.85;;;5.72;;
30948;SDS011;17637;51.984;21.208;2023-09-18T13:31:06;6.72;;;6.03;;
30948;SDS011;17637;51.984;21.208;2023-09-18T13:33:38;7.80;;;5.60;;
30948;SDS011;17637;51.984;21.208;2023-09-18T13:36:12;6.63;;;4.95;;
30948;SDS011;17637;51.984;21.208;2023-09-18T13:38:44;7.55;;;5.68;;
30948;SDS011;17637;51.984;21.208;2023-09-18T13:41:16;5.53;;;4.90;;
30948;SDS011;17637;51.984;21.208;2023-09-18T13:43:47;6.07;;;5.32;;
30948;SDS011;17637;51.984;21.208;2023-09-18T13:46:21;7.78;;;5.97;;
30948;SDS011;17637;51.984;21.208;2023-09-18T13:48:53;9.23;;;5.93;;
30948;SDS011;17637;51.984;21.208;2023-09-18T13:51:25;7.65;;;6.30;;
30948;SDS011;17637;51.984;21.208;2023-09-18T13:53:57;6.47;;;5.65;;
30948;SDS011;17637;51.984;21.208;2023-09-18T13:56:29;6.60;;;6.00;;
30948;SDS011;17637;51.984;21.208;2023-09-18T13:59:01;8.90;;;6.28;;
30948;SDS011;17637;51.984;21.208;2023-09-18T14:01:33;9.15;;;6.18;;
30948;SDS011;17637;51.984;21.208;2023-09-18T14:04:04;7.38;;;6.38;;
30948;SDS011;17637;51.984;21.208;2023-09-18T14:06:36;8.43;;;6.78;;
30948;SDS011;17637;51.984;21.208;2023-09-18T14:09:09;8.30;;;6.53;;
30948;SDS011;17637;51.984;21.208;2023-09-18T14:11:41;7.00;;;5.97;;
30948;SDS011;17637;51.984;21.208;2023-09-18T14:14:13;7.30;;;6.60;;
30948;SDS011;17637;51.984;21.208;2023-09-18T14:16:45;8.73;;;7.45;;
30948;SDS011;17637;51.984;21.208;2023-09-18T14:19:17;8.98;;;7.35;;
30948;SDS011;17637;51.984;21.208;2023-09-18T14:21:49;8.05;;;7.13;;
30948;SDS011;17637;51.984;21.208;2023-09-18T14:24:21;8.77;;;7.32;;
30948;SDS011;17637;51.984;21.208;2023-09-18T14:26:56;8.50;;;7.70;;
30948;SDS011;17637;51.984;21.208;2023-09-18T14:29:28;9.55;;;7.90;;
30948;SDS011;17637;51.984;21.208;2023-09-18T14:32:05;8.27;;;7.43;;
30948;SDS011;17637;51.984;21.208;2023-09-18T14:34:39;10.43;;;8.00;;
30948;SDS011;17637;51.984;21.208;2023-09-18T14:37:11;10.93;;;8.30;;
30948;SDS011;17637;51.984;21.208;2023-09-18T14:39:43;9.38;;;8.38;;
30948;SDS011;17637;51.984;21.208;2023-09-18T14:42:15;11.38;;;8.50;;
30948;SDS011;17637;51.984;21.208;2023-09-18T14:44:47;9.68;;;8.68;;
30948;SDS011;17637;51.984;21.208;2023-09-18T14:47:19;9.38;;;8.52;;
30948;SDS011;17637;51.984;21.208;2023-09-18T14:49:54;11.90;;;9.18;;
30948;SDS011;17637;51.984;21.208;2023-09-18T14:52:26;10.50;;;9.10;;
30948;SDS011;17637;51.984;21.208;2023-09-18T14:54:58;9.60;;;8.55;;
30948;SDS011;17637;51.984;21.208;2023-09-18T14:57:31;13.50;;;9.68;;
30948;SDS011;17637;51.984;21.208;2023-09-18T15:00:03;10.65;;;9.65;;
30948;SDS011;17637;51.984;21.208;2023-09-18T15:02:37;10.25;;;9.25;;
30948;SDS011;17637;51.984;21.208;2023-09-18T15:05:10;10.13;;;9.13;;
30948;SDS011;17637;51.984;21.208;2023-09-18T15:07:44;12.48;;;9.52;;
30948;SDS011;17637;51.984;21.208;2023-09-18T15:10:15;10.27;;;8.77;;